sensor_id;sensor_type;location;lat;lon;timestamp;P1;durP1;ratioP1;P2;durP2;ratioP2
72085;SDS011;64750;52.134;5.424;2023-04-24T00:01:03;0.40;;;0.40;;
72085;SDS011;64750;52.134;5.424;2023-04-24T00:03:29;0.50;;;0.30;;
72085;SDS011;64750;52.134;5.424;2023-04-24T00:05:56;1.38;;;0.47;;
72085;SDS011;64750;52.134;5.424;2023-04-24T00:08:23;0.93;;;0.70;;
72085;SDS011;64750;52.134;5.424;2023-04-24T00:10:50;1.37;;;0.50;;
72085;SDS011;64750;52.134;5.424;2023-04-24T00:13:16;1.60;;;0.40;;
72085;SDS011;64750;52.134;5.424;2023-04-24T00:15:42;1.38;;;0.40;;
72085;SDS011;64750;52.134;5.424;2023-04-24T00:18:09;0.90;;;0.50;;
72085;SDS011;64750;52.134;5.424;2023-04-24T00:20:35;0.68;;;0.63;;
72085;SDS011;64750;52.134;5.424;2023-04-24T00:23:02;1.00;;;0.80;;
72085;SDS011;64750;52.134;5.424;2023-04-24T00:25:28;0.80;;;0.80;;
72085;SDS011;64750;52.134;5.424;2023-04-24T00:27:55;1.23;;;0.70;;
72085;SDS011;64750;52.134;5.424;2023-04-24T00:30:21;1.50;;;0.73;;
72085;SDS011;64750;52.134;5.424;2023-04-24T00:32:48;0.80;;;0.60;;
72085;SDS011;64750;52.134;5.424;2023-04-24T00:35:14;0.70;;;0.70;;
72085;SDS011;64750;52.134;5.424;2023-04-24T00:37:41;0.80;;;0.80;;
72085;SDS011;64750;52.134;5.424;2023-04-24T00:40:08;0.75;;;0.75;;
72085;SDS011;64750;52.134;5.424;2023-04-24T00:42:34;0.70;;;0.70;;
72085;SDS011;64750;52.134;5.424;2023-04-24T00:45:01;0.90;;;0.82;;
72085;SDS011;64750;52.134;5.424;2023-04-24T00:47:29;1.07;;;0.70;;
72085;SDS011;64750;52.134;5.424;2023-04-24T00:49:56;2.97;;;0.80;;
72085;SDS011;64750;52.134;5.424;2023-04-24T00:52:22;1.05;;;0.70;;
72085;SDS011;64750;52.134;5.424;2023-04-24T00:54:50;1.52;;;1.42;;
72085;SDS011;64750;52.134;5.424;2023-04-24T00:57:16;1.30;;;1.10;;
72085;SDS011;64750;52.134;5.424;2023-04-24T00:59:43;2.30;;;1.40;;
72085;SDS011;64750;52.134;5.424;2023-04-24T01:02:10;1.13;;;1.02;;
72085;SDS011;64750;52.134;5.424;2023-04-24T01:04:37;1.85;;;1.00;;
72085;SDS011;64750;52.134;5.424;2023-04-24T01:07:05;1.30;;;1.20;;
72085;SDS011;64750;52.134;5.424;2023-04-24T01:09:37;2.25;;;1.45;;
72085;SDS011;64750;52.134;5.424;2023-04-24T01:12:07;2.00;;;1.53;;
72085;SDS011;64750;52.134;5.424;2023-04-24T01:14:33;1.67;;;1.58;;
72085;SDS011;64750;52.134;5.424;2023-04-24T01:17:00;1.55;;;1.45;;
72085;SDS011;64750;52.134;5.424;2023-04-24T01:19:27;1.67;;;1.58;;
72085;SDS011;64750;52.134;5.424;2023-04-24T01:21:54;1.88;;;1.77;;
72085;SDS011;64750;52.134;5.424;2023-04-24T01:24:25;2.00;;;1.90;;
72085;SDS011;64750;52.134;5.424;2023-04-24T01:26:51;2.08;;;1.88;;
72085;SDS011;64750;52.134;5.424;2023-04-24T01:29:17;2.05;;;1.40;;
72085;SDS011;64750;52.134;5.424;2023-04-24T01:31:44;1.90;;;1.50;;
72085;SDS011;64750;52.134;5.424;2023-04-24T01:34:11;2.20;;;1.85;;
72085;SDS011;64750;52.134;5.424;2023-04-24T01:36:38;2.17;;;1.73;;
72085;SDS011;64750;52.134;5.424;2023-04-24T01:39:05;1.50;;;1.40;;
72085;SDS011;64750;52.134;5.424;2023-04-24T01:41:31;2.70;;;1.70;;
72085;SDS011;64750;52.134;5.424;2023-04-24T01:43:58;2.65;;;2.03;;
72085;SDS011;64750;52.134;5.424;2023-04-24T01:46:25;2.15;;;2.03;;
72085;SDS011;64750;52.134;5.424;2023-04-24T01:48:52;3.50;;;1.97;;
72085;SDS011;64750;52.134;5.424;2023-04-24T01:51:19;2.13;;;2.03;;
72085;SDS011;64750;52.134;5.424;2023-04-24T01:53:45;1.88;;;1.77;;
72085;SDS011;64750;52.134;5.424;2023-04-24T01:56:12;2.33;;;2.20;;
72085;SDS011;64750;52.134;5.424;2023-04-24T01:58:38;2.75;;;2.35;;
72085;SDS011;64750;52.134;5.424;2023-04-24T02:01:06;2.80;;;2.60;;
72085;SDS011;64750;52.134;5.424;2023-04-24T02:03:32;2.70;;;2.13;;
72085;SDS011;64750;52.134;5.424;2023-04-24T02:05:59;3.22;;;2.28;;
72085;SDS011;64750;52.134;5.424;2023-04-24T02:08:26;3.10;;;2.47;;
72085;SDS011;64750;52.134;5.424;2023-04-24T02:10:52;2.83;;;2.70;;
72085;SDS011;64750;52.134;5.424;2023-04-24T02:13:18;2.97;;;2.63;;
72085;SDS011;64750;52.134;5.424;2023-04-24T02:15:45;2.50;;;2.30;;
72085;SDS011;64750;52.134;5.424;2023-04-24T02:18:11;3.00;;;2.63;;
72085;SDS011;64750;52.134;5.424;2023-04-24T02:20:38;2.50;;;2.40;;
72085;SDS011;64750;52.134;5.424;2023-04-24T02:23:05;2.38;;;2.28;;
72085;SDS011;64750;52.134;5.424;2023-04-24T02:25:31;2.37;;;2.17;;
72085;SDS011;64750;52.134;5.424;2023-04-24T02:27:59;2.20;;;2.10;;
72085;SDS011;64750;52.134;5.424;2023-04-24T02:30:26;2.55;;;2.35;;
72085;SDS011;64750;52.134;5.424;2023-04-24T02:32:52;2.67;;;1.92;;
72085;SDS011;64750;52.134;5.424;2023-04-24T02:35:18;2.28;;;1.95;;
72085;SDS011;64750;52.134;5.424;2023-04-24T02:37:45;1.93;;;1.83;;
72085;SDS011;64750;52.134;5.424;2023-04-24T02:40:11;1.63;;;1.52;;
72085;SDS011;64750;52.134;5.424;2023-04-24T02:42:38;2.05;;;1.67;;
72085;SDS011;64750;52.134;5.424;2023-04-24T02:45:04;2.20;;;2.10;;
72085;SDS011;64750;52.134;5.424;2023-04-24T02:47:31;2.03;;;1.88;;
72085;SDS011;64750;52.134;5.424;2023-04-24T02:49:58;2.03;;;1.63;;
72085;SDS011;64750;52.134;5.424;2023-04-24T02:52:24;3.63;;;1.75;;
72085;SDS011;64750;52.134;5.424;2023-04-24T02:54:51;2.55;;;2.45;;
72085;SDS011;64750;52.134;5.424;2023-04-24T02:57:17;2.67;;;2.47;;
72085;SDS011;64750;52.134;5.424;2023-04-24T02:59:43;1.80;;;1.70;;
72085;SDS011;64750;52.134;5.424;2023-04-24T03:02:10;2.13;;;2.00;;
72085;SDS011;64750;52.134;5.424;2023-04-24T03:04:36;2.33;;;2.22;;
72085;SDS011;64750;52.134;5.424;2023-04-24T03:07:03;2.40;;;2.30;;
72085;SDS011;64750;52.134;5.424;2023-04-24T03:09:30;1.95;;;1.85;;
72085;SDS011;64750;52.134;5.424;2023-04-24T03:11:57;4.75;;;2.35;;
72085;SDS011;64750;52.134;5.424;2023-04-24T03:14:24;2.50;;;2.30;;
72085;SDS011;64750;52.134;5.424;2023-04-24T03:16:50;2.58;;;2.38;;
72085;SDS011;64750;52.134;5.424;2023-04-24T03:19:17;2.20;;;2.10;;
72085;SDS011;64750;52.134;5.424;2023-04-24T03:21:43;2.55;;;2.05;;
72085;SDS011;64750;52.134;5.424;2023-04-24T03:24:10;2.03;;;1.92;;
72085;SDS011;64750;52.134;5.424;2023-04-24T03:26:36;2.33;;;2.13;;
72085;SDS011;64750;52.134;5.424;2023-04-24T03:29:02;2.70;;;2.50;;
72085;SDS011;64750;52.134;5.424;2023-04-24T03:31:29;2.65;;;2.28;;
72085;SDS011;64750;52.134;5.424;2023-04-24T03:33:55;2.50;;;2.30;;
72085;SDS011;64750;52.134;5.424;2023-04-24T03:36:22;2.22;;;2.13;;
72085;SDS011;64750;52.134;5.424;2023-04-24T03:38:48;2.40;;;2.20;;
72085;SDS011;64750;52.134;5.424;2023-04-24T03:41:15;2.67;;;2.47;;
72085;SDS011;64750;52.134;5.424;2023-04-24T03:43:41;2.38;;;2.17;;
72085;SDS011;64750;52.134;5.424;2023-04-24T03:46:07;2.15;;;2.05;;
72085;SDS011;64750;52.134;5.424;2023-04-24T03:48:35;2.13;;;1.92;;
72085;SDS011;64750;52.134;5.424;2023-04-24T03:51:02;2.43;;;2.23;;
72085;SDS011;64750;52.134;5.424;2023-04-24T03:53:28;3.03;;;2.38;;
72085;SDS011;64750;52.134;5.424;2023-04-24T03:55:55;2.33;;;2.13;;
72085;SDS011;64750;52.134;5.424;2023-04-24T03:58:21;2.92;;;2.42;;
72085;SDS011;64750;52.134;5.424;2023-04-24T04:00:47;2.53;;;2.33;;
72085;SDS011;64750;52.134;5.424;2023-04-24T04:03:14;2.67;;;2.47;;
72085;SDS011;64750;52.134;5.424;2023-04-24T04:05:41;2.63;;;2.42;;
72085;SDS011;64750;52.134;5.424;2023-04-24T04:08:07;2.58;;;2.38;;
72085;SDS011;64750;52.134;5.424;2023-04-24T04:10:33;2.05;;;1.73;;
72085;SDS011;64750;52.134;5.424;2023-04-24T04:13:00;1.48;;;1.38;;
72085;SDS011;64750;52.134;5.424;2023-04-24T04:15:26;1.50;;;1.40;;
72085;SDS011;64750;52.134;5.424;2023-04-24T04:17:52;1.42;;;1.27;;
72085;SDS011;64750;52.134;5.424;2023-04-24T04:20:19;1.20;;;1.10;;
72085;SDS011;64750;52.134;5.424;2023-04-24T04:22:45;1.33;;;0.80;;
72085;SDS011;64750;52.134;5.424;2023-04-24T04:25:12;1.63;;;1.33;;
72085;SDS011;64750;52.134;5.424;2023-04-24T04:27:39;1.27;;;1.17;;
72085;SDS011;64750;52.134;5.424;2023-04-24T04:30:07;1.83;;;1.73;;
72085;SDS011;64750;52.134;5.424;2023-04-24T04:32:35;1.70;;;1.60;;
72085;SDS011;64750;52.134;5.424;2023-04-24T04:35:02;1.45;;;1.35;;
72085;SDS011;64750;52.134;5.424;2023-04-24T04:37:29;2.30;;;1.20;;
72085;SDS011;64750;52.134;5.424;2023-04-24T04:39:57;1.47;;;1.37;;
72085;SDS011;64750;52.134;5.424;2023-04-24T04:42:27;1.42;;;1.33;;
72085;SDS011;64750;52.134;5.424;2023-04-24T04:44:54;2.05;;;1.95;;
72085;SDS011;64750;52.134;5.424;2023-04-24T04:47:22;2.20;;;2.00;;
72085;SDS011;64750;52.134;5.424;2023-04-24T04:49:52;2.28;;;2.15;;
72085;SDS011;64750;52.134;5.424;2023-04-24T04:52:19;3.10;;;2.47;;
72085;SDS011;64750;52.134;5.424;2023-04-24T04:54:45;2.78;;;2.53;;
72085;SDS011;64750;52.134;5.424;2023-04-24T04:57:12;5.32;;;2.78;;
72085;SDS011;64750;52.134;5.424;2023-04-24T04:59:39;3.28;;;3.00;;
72085;SDS011;64750;52.134;5.424;2023-04-24T05:02:07;3.30;;;3.00;;
72085;SDS011;64750;52.134;5.424;2023-04-24T05:04:34;3.07;;;2.87;;
72085;SDS011;64750;52.134;5.424;2023-04-24T05:07:01;3.42;;;3.10;;
72085;SDS011;64750;52.134;5.424;2023-04-24T05:09:27;3.53;;;3.22;;
72085;SDS011;64750;52.134;5.424;2023-04-24T05:11:55;2.97;;;2.78;;
72085;SDS011;64750;52.134;5.424;2023-04-24T05:14:22;3.70;;;3.40;;
72085;SDS011;64750;52.134;5.424;2023-04-24T05:16:48;3.23;;;2.93;;
72085;SDS011;64750;52.134;5.424;2023-04-24T05:19:15;2.60;;;2.40;;
72085;SDS011;64750;52.134;5.424;2023-04-24T05:21:41;3.35;;;2.55;;
72085;SDS011;64750;52.134;5.424;2023-04-24T05:24:08;2.95;;;2.75;;
72085;SDS011;64750;52.134;5.424;2023-04-24T05:26:34;5.80;;;3.17;;
72085;SDS011;64750;52.134;5.424;2023-04-24T05:29:01;2.70;;;2.50;;
72085;SDS011;64750;52.134;5.424;2023-04-24T05:31:28;3.13;;;2.83;;
72085;SDS011;64750;52.134;5.424;2023-04-24T05:33:55;2.90;;;2.70;;
72085;SDS011;64750;52.134;5.424;2023-04-24T05:36:21;2.75;;;2.55;;
72085;SDS011;64750;52.134;5.424;2023-04-24T05:38:47;6.13;;;2.90;;
72085;SDS011;64750;52.134;5.424;2023-04-24T05:41:14;4.17;;;2.57;;
72085;SDS011;64750;52.134;5.424;2023-04-24T05:43:41;4.28;;;2.60;;
72085;SDS011;64750;52.134;5.424;2023-04-24T05:46:07;3.50;;;2.85;;
72085;SDS011;64750;52.134;5.424;2023-04-24T05:48:34;3.95;;;2.85;;
72085;SDS011;64750;52.134;5.424;2023-04-24T05:51:00;3.47;;;2.30;;
72085;SDS011;64750;52.134;5.424;2023-04-24T05:53:27;4.43;;;2.40;;
72085;SDS011;64750;52.134;5.424;2023-04-24T05:55:53;2.30;;;2.08;;
72085;SDS011;64750;52.134;5.424;2023-04-24T05:58:19;3.15;;;2.20;;
72085;SDS011;64750;52.134;5.424;2023-04-24T06:00:46;1.80;;;1.65;;
72085;SDS011;64750;52.134;5.424;2023-04-24T06:03:13;2.63;;;2.05;;
72085;SDS011;64750;52.134;5.424;2023-04-24T06:05:39;2.40;;;1.90;;
72085;SDS011;64750;52.134;5.424;2023-04-24T06:08:06;2.58;;;1.10;;
72085;SDS011;64750;52.134;5.424;2023-04-24T06:10:32;1.30;;;1.20;;
72085;SDS011;64750;52.134;5.424;2023-04-24T06:12:59;1.60;;;1.00;;
72085;SDS011;64750;52.134;5.424;2023-04-24T06:15:29;1.77;;;1.10;;
72085;SDS011;64750;52.134;5.424;2023-04-24T06:17:57;1.40;;;1.13;;
72085;SDS011;64750;52.134;5.424;2023-04-24T06:20:23;1.17;;;1.08;;
72085;SDS011;64750;52.134;5.424;2023-04-24T06:22:50;2.45;;;1.05;;
72085;SDS011;64750;52.134;5.424;2023-04-24T06:25:16;1.33;;;0.90;;
72085;SDS011;64750;52.134;5.424;2023-04-24T06:27:44;0.90;;;0.75;;
72085;SDS011;64750;52.134;5.424;2023-04-24T06:30:10;1.57;;;0.70;;
72085;SDS011;64750;52.134;5.424;2023-04-24T06:32:37;0.80;;;0.40;;
72085;SDS011;64750;52.134;5.424;2023-04-24T06:35:04;0.85;;;0.45;;
72085;SDS011;64750;52.134;5.424;2023-04-24T06:37:30;1.38;;;0.50;;
72085;SDS011;64750;52.134;5.424;2023-04-24T06:39:58;2.35;;;0.50;;
72085;SDS011;64750;52.134;5.424;2023-04-24T06:42:24;1.20;;;0.70;;
72085;SDS011;64750;52.134;5.424;2023-04-24T06:44:51;1.42;;;0.90;;
72085;SDS011;64750;52.134;5.424;2023-04-24T06:47:17;1.92;;;1.67;;
72085;SDS011;64750;52.134;5.424;2023-04-24T06:49:44;4.40;;;2.85;;
72085;SDS011;64750;52.134;5.424;2023-04-24T06:52:11;3.55;;;3.25;;
72085;SDS011;64750;52.134;5.424;2023-04-24T06:54:37;4.77;;;4.00;;
72085;SDS011;64750;52.134;5.424;2023-04-24T06:57:04;4.60;;;4.00;;
72085;SDS011;64750;52.134;5.424;2023-04-24T06:59:30;5.78;;;4.32;;
72085;SDS011;64750;52.134;5.424;2023-04-24T07:01:57;6.72;;;4.93;;
72085;SDS011;64750;52.134;5.424;2023-04-24T07:04:23;8.43;;;5.47;;
72085;SDS011;64750;52.134;5.424;2023-04-24T07:06:51;7.47;;;5.63;;
72085;SDS011;64750;52.134;5.424;2023-04-24T07:09:20;7.68;;;5.38;;
72085;SDS011;64750;52.134;5.424;2023-04-24T07:11:46;7.60;;;5.90;;
72085;SDS011;64750;52.134;5.424;2023-04-24T07:14:13;7.45;;;5.50;;
72085;SDS011;64750;52.134;5.424;2023-04-24T07:16:40;7.45;;;5.38;;
72085;SDS011;64750;52.134;5.424;2023-04-24T07:19:06;6.63;;;5.70;;
72085;SDS011;64750;52.134;5.424;2023-04-24T07:21:33;9.02;;;5.40;;
72085;SDS011;64750;52.134;5.424;2023-04-24T07:23:59;5.88;;;5.00;;
72085;SDS011;64750;52.134;5.424;2023-04-24T07:26:26;6.97;;;4.95;;
72085;SDS011;64750;52.134;5.424;2023-04-24T07:28:54;7.35;;;5.28;;
72085;SDS011;64750;52.134;5.424;2023-04-24T07:31:21;6.73;;;5.03;;
72085;SDS011;64750;52.134;5.424;2023-04-24T07:33:48;7.97;;;5.03;;
72085;SDS011;64750;52.134;5.424;2023-04-24T07:36:14;11.75;;;4.78;;
72085;SDS011;64750;52.134;5.424;2023-04-24T07:38:45;10.40;;;5.18;;
72085;SDS011;64750;52.134;5.424;2023-04-24T07:41:14;5.43;;;4.57;;
72085;SDS011;64750;52.134;5.424;2023-04-24T07:43:41;7.83;;;4.57;;
72085;SDS011;64750;52.134;5.424;2023-04-24T07:46:08;8.77;;;4.53;;
72085;SDS011;64750;52.134;5.424;2023-04-24T07:48:35;9.63;;;4.63;;
72085;SDS011;64750;52.134;5.424;2023-04-24T07:51:02;6.05;;;4.32;;
72085;SDS011;64750;52.134;5.424;2023-04-24T07:53:29;9.07;;;4.63;;
72085;SDS011;64750;52.134;5.424;2023-04-24T07:55:55;7.70;;;4.43;;
72085;SDS011;64750;52.134;5.424;2023-04-24T07:58:22;12.20;;;4.88;;
72085;SDS011;64750;52.134;5.424;2023-04-24T08:00:48;7.13;;;4.40;;
72085;SDS011;64750;52.134;5.424;2023-04-24T08:03:15;8.93;;;4.57;;
72085;SDS011;64750;52.134;5.424;2023-04-24T08:05:45;6.47;;;4.20;;
72085;SDS011;64750;52.134;5.424;2023-04-24T08:08:12;5.53;;;4.77;;
72085;SDS011;64750;52.134;5.424;2023-04-24T08:10:39;8.00;;;4.60;;
72085;SDS011;64750;52.134;5.424;2023-04-24T08:13:05;12.48;;;4.45;;
72085;SDS011;64750;52.134;5.424;2023-04-24T08:15:32;8.55;;;3.80;;
72085;SDS011;64750;52.134;5.424;2023-04-24T08:17:58;6.50;;;3.30;;
72085;SDS011;64750;52.134;5.424;2023-04-24T08:20:25;5.10;;;3.13;;
72085;SDS011;64750;52.134;5.424;2023-04-24T08:22:51;7.50;;;3.13;;
72085;SDS011;64750;52.134;5.424;2023-04-24T08:25:18;5.13;;;3.35;;
72085;SDS011;64750;52.134;5.424;2023-04-24T08:27:45;3.50;;;2.40;;
72085;SDS011;64750;52.134;5.424;2023-04-24T08:30:11;7.75;;;2.50;;
72085;SDS011;64750;52.134;5.424;2023-04-24T08:32:38;7.10;;;2.60;;
72085;SDS011;64750;52.134;5.424;2023-04-24T08:35:04;6.10;;;2.03;;
72085;SDS011;64750;52.134;5.424;2023-04-24T08:37:31;7.13;;;2.10;;
72085;SDS011;64750;52.134;5.424;2023-04-24T08:39:58;5.60;;;2.65;;
72085;SDS011;64750;52.134;5.424;2023-04-24T08:42:24;5.15;;;2.40;;
72085;SDS011;64750;52.134;5.424;2023-04-24T08:44:54;4.77;;;2.23;;
72085;SDS011;64750;52.134;5.424;2023-04-24T08:47:21;5.70;;;2.42;;
72085;SDS011;64750;52.134;5.424;2023-04-24T08:49:49;6.15;;;2.25;;
72085;SDS011;64750;52.134;5.424;2023-04-24T08:52:16;14.43;;;2.47;;
72085;SDS011;64750;52.134;5.424;2023-04-24T08:54:44;11.48;;;2.33;;
72085;SDS011;64750;52.134;5.424;2023-04-24T08:57:12;5.67;;;1.43;;
72085;SDS011;64750;52.134;5.424;2023-04-24T08:59:40;9.32;;;2.13;;
72085;SDS011;64750;52.134;5.424;2023-04-24T09:02:09;6.53;;;1.42;;
72085;SDS011;64750;52.134;5.424;2023-04-24T09:04:37;5.45;;;1.73;;
72085;SDS011;64750;52.134;5.424;2023-04-24T09:07:05;7.65;;;1.52;;
72085;SDS011;64750;52.134;5.424;2023-04-24T09:09:32;8.77;;;1.50;;
72085;SDS011;64750;52.134;5.424;2023-04-24T09:11:59;4.95;;;1.20;;
72085;SDS011;64750;52.134;5.424;2023-04-24T09:14:26;6.55;;;1.58;;
72085;SDS011;64750;52.134;5.424;2023-04-24T09:16:54;6.40;;;1.35;;
72085;SDS011;64750;52.134;5.424;2023-04-24T09:19:20;8.32;;;1.65;;
72085;SDS011;64750;52.134;5.424;2023-04-24T09:21:48;6.73;;;1.27;;
72085;SDS011;64750;52.134;5.424;2023-04-24T09:24:16;4.22;;;1.35;;
72085;SDS011;64750;52.134;5.424;2023-04-24T09:26:43;4.13;;;1.50;;
72085;SDS011;64750;52.134;5.424;2023-04-24T09:29:19;8.00;;;1.27;;
72085;SDS011;64750;52.134;5.424;2023-04-24T09:31:46;6.03;;;1.60;;
72085;SDS011;64750;52.134;5.424;2023-04-24T09:34:12;5.63;;;1.20;;
72085;SDS011;64750;52.134;5.424;2023-04-24T09:36:40;7.53;;;1.42;;
72085;SDS011;64750;52.134;5.424;2023-04-24T09:39:09;5.80;;;1.08;;
72085;SDS011;64750;52.134;5.424;2023-04-24T09:46:44;7.20;;;1.60;;
72085;SDS011;64750;52.134;5.424;2023-04-24T09:49:15;6.65;;;1.30;;
72085;SDS011;64750;52.134;5.424;2023-04-24T09:51:43;6.10;;;1.58;;
72085;SDS011;64750;52.134;5.424;2023-04-24T09:54:19;7.03;;;1.13;;
72085;SDS011;64750;52.134;5.424;2023-04-24T09:56:48;3.80;;;1.00;;
72085;SDS011;64750;52.134;5.424;2023-04-24T09:59:15;3.37;;;1.40;;
72085;SDS011;64750;52.134;5.424;2023-04-24T10:01:44;4.80;;;1.25;;
72085;SDS011;64750;52.134;5.424;2023-04-24T10:04:18;3.10;;;1.00;;
72085;SDS011;64750;52.134;5.424;2023-04-24T10:06:47;4.65;;;1.10;;
72085;SDS011;64750;52.134;5.424;2023-04-24T10:09:16;4.05;;;1.10;;
72085;SDS011;64750;52.134;5.424;2023-04-24T10:11:44;6.17;;;1.37;;
72085;SDS011;64750;52.134;5.424;2023-04-24T10:14:13;5.88;;;1.40;;
72085;SDS011;64750;52.134;5.424;2023-04-24T10:16:41;6.85;;;1.20;;
72085;SDS011;64750;52.134;5.424;2023-04-24T10:19:09;5.25;;;1.00;;
72085;SDS011;64750;52.134;5.424;2023-04-24T10:21:36;3.80;;;1.00;;
72085;SDS011;64750;52.134;5.424;2023-04-24T10:24:08;6.13;;;1.10;;
72085;SDS011;64750;52.134;5.424;2023-04-24T10:26:35;6.82;;;1.25;;
72085;SDS011;64750;52.134;5.424;2023-04-24T10:29:03;3.60;;;1.30;;
72085;SDS011;64750;52.134;5.424;2023-04-24T10:31:32;3.42;;;0.93;;
72085;SDS011;64750;52.134;5.424;2023-04-24T10:33:59;2.63;;;0.68;;
72085;SDS011;64750;52.134;5.424;2023-04-24T10:36:27;1.10;;;0.77;;
72085;SDS011;64750;52.134;5.424;2023-04-24T10:38:55;2.65;;;0.60;;
72085;SDS011;64750;52.134;5.424;2023-04-24T10:41:23;1.60;;;0.57;;
72085;SDS011;64750;52.134;5.424;2023-04-24T10:46:32;0.70;;;0.30;;
72085;SDS011;64750;52.134;5.424;2023-04-24T10:48:59;2.77;;;0.50;;
72085;SDS011;64750;52.134;5.424;2023-04-24T10:51:45;2.67;;;0.50;;
72085;SDS011;64750;52.134;5.424;2023-04-24T10:54:22;2.55;;;0.40;;
72085;SDS011;64750;52.134;5.424;2023-04-24T10:56:50;1.20;;;0.60;;
72085;SDS011;64750;52.134;5.424;2023-04-24T10:59:24;1.63;;;0.40;;
72085;SDS011;64750;52.134;5.424;2023-04-24T11:01:54;1.20;;;0.33;;
72085;SDS011;64750;52.134;5.424;2023-04-24T11:04:30;4.03;;;0.60;;
72085;SDS011;64750;52.134;5.424;2023-04-24T11:06:58;1.25;;;0.60;;
72085;SDS011;64750;52.134;5.424;2023-04-24T11:09:30;2.60;;;0.40;;
72085;SDS011;64750;52.134;5.424;2023-04-24T11:12:07;2.42;;;0.40;;
72085;SDS011;64750;52.134;5.424;2023-04-24T11:17:36;4.68;;;0.50;;
72085;SDS011;64750;52.134;5.424;2023-04-24T11:20:05;4.18;;;0.63;;
72085;SDS011;64750;52.134;5.424;2023-04-24T11:22:52;1.70;;;1.10;;
72085;SDS011;64750;52.134;5.424;2023-04-24T11:25:23;4.85;;;0.55;;
72085;SDS011;64750;52.134;5.424;2023-04-24T11:27:51;3.57;;;0.47;;
72085;SDS011;64750;52.134;5.424;2023-04-24T11:30:29;1.70;;;0.40;;
72085;SDS011;64750;52.134;5.424;2023-04-24T11:33:07;6.22;;;0.43;;
72085;SDS011;64750;52.134;5.424;2023-04-24T11:35:39;2.35;;;0.60;;
72085;SDS011;64750;52.134;5.424;2023-04-24T11:38:06;2.70;;;0.40;;
72085;SDS011;64750;52.134;5.424;2023-04-24T11:40:36;1.73;;;0.50;;
72085;SDS011;64750;52.134;5.424;2023-04-24T11:43:03;5.47;;;0.50;;
72085;SDS011;64750;52.134;5.424;2023-04-24T11:45:33;4.78;;;0.50;;
72085;SDS011;64750;52.134;5.424;2023-04-24T11:48:00;5.13;;;0.70;;
72085;SDS011;64750;52.134;5.424;2023-04-24T11:50:26;5.35;;;0.60;;
72085;SDS011;64750;52.134;5.424;2023-04-24T11:52:55;3.07;;;0.50;;
72085;SDS011;64750;52.134;5.424;2023-04-24T11:57:49;1.05;;;0.50;;
72085;SDS011;64750;52.134;5.424;2023-04-24T12:00:18;1.75;;;0.40;;
72085;SDS011;64750;52.134;5.424;2023-04-24T12:02:47;2.67;;;0.20;;
72085;SDS011;64750;52.134;5.424;2023-04-24T12:07:48;0.40;;;0.20;;
72085;SDS011;64750;52.134;5.424;2023-04-24T12:10:19;0.25;;;0.20;;
72085;SDS011;64750;52.134;5.424;2023-04-24T12:12:56;0.90;;;0.38;;
72085;SDS011;64750;52.134;5.424;2023-04-24T12:15:23;1.85;;;0.30;;
72085;SDS011;64750;52.134;5.424;2023-04-24T12:17:51;2.10;;;0.37;;
72085;SDS011;64750;52.134;5.424;2023-04-24T12:20:23;2.25;;;0.30;;
72085;SDS011;64750;52.134;5.424;2023-04-24T12:22:54;2.03;;;0.40;;
72085;SDS011;64750;52.134;5.424;2023-04-24T12:25:23;4.20;;;0.50;;
72085;SDS011;64750;52.134;5.424;2023-04-24T12:30:30;2.10;;;0.70;;
72085;SDS011;64750;52.134;5.424;2023-04-24T12:33:00;6.28;;;1.25;;
72085;SDS011;64750;52.134;5.424;2023-04-24T12:35:29;3.20;;;0.52;;
72085;SDS011;64750;52.134;5.424;2023-04-24T12:38:32;4.15;;;0.80;;
72085;SDS011;64750;52.134;5.424;2023-04-24T12:41:05;1.67;;;0.40;;
72085;SDS011;64750;52.134;5.424;2023-04-24T12:43:33;1.87;;;0.63;;
72085;SDS011;64750;52.134;5.424;2023-04-24T12:46:00;4.20;;;0.50;;
72085;SDS011;64750;52.134;5.424;2023-04-24T12:48:27;4.05;;;0.52;;
72085;SDS011;64750;52.134;5.424;2023-04-24T12:50:54;2.60;;;0.75;;
72085;SDS011;64750;52.134;5.424;2023-04-24T12:53:21;3.00;;;0.60;;
72085;SDS011;64750;52.134;5.424;2023-04-24T12:55:48;4.47;;;0.90;;
72085;SDS011;64750;52.134;5.424;2023-04-24T12:58:19;1.55;;;0.60;;
72085;SDS011;64750;52.134;5.424;2023-04-24T13:00:46;5.57;;;1.50;;
72085;SDS011;64750;52.134;5.424;2023-04-24T13:03:13;4.15;;;0.98;;
72085;SDS011;64750;52.134;5.424;2023-04-24T13:05:41;5.47;;;1.08;;
72085;SDS011;64750;52.134;5.424;2023-04-24T13:08:08;8.00;;;1.03;;
72085;SDS011;64750;52.134;5.424;2023-04-24T13:10:35;8.35;;;1.10;;
72085;SDS011;64750;52.134;5.424;2023-04-24T13:13:02;4.85;;;1.23;;
72085;SDS011;64750;52.134;5.424;2023-04-24T13:15:29;9.85;;;1.45;;
72085;SDS011;64750;52.134;5.424;2023-04-24T13:17:55;3.15;;;1.10;;
72085;SDS011;64750;52.134;5.424;2023-04-24T13:20:22;9.43;;;1.60;;
72085;SDS011;64750;52.134;5.424;2023-04-24T13:22:48;5.22;;;0.80;;
72085;SDS011;64750;52.134;5.424;2023-04-24T13:25:14;6.20;;;1.58;;
72085;SDS011;64750;52.134;5.424;2023-04-24T13:27:42;3.47;;;1.00;;
72085;SDS011;64750;52.134;5.424;2023-04-24T13:30:10;3.95;;;1.23;;
72085;SDS011;64750;52.134;5.424;2023-04-24T13:32:36;8.57;;;1.20;;
72085;SDS011;64750;52.134;5.424;2023-04-24T13:35:03;4.20;;;0.70;;
72085;SDS011;64750;52.134;5.424;2023-04-24T13:37:30;6.68;;;1.50;;
72085;SDS011;64750;52.134;5.424;2023-04-24T13:39:56;3.00;;;1.50;;
72085;SDS011;64750;52.134;5.424;2023-04-24T13:42:23;6.97;;;1.23;;
72085;SDS011;64750;52.134;5.424;2023-04-24T13:44:49;6.57;;;1.10;;
72085;SDS011;64750;52.134;5.424;2023-04-24T13:47:17;8.75;;;1.85;;
72085;SDS011;64750;52.134;5.424;2023-04-24T13:49:43;6.47;;;1.75;;
72085;SDS011;64750;52.134;5.424;2023-04-24T13:52:09;6.28;;;1.50;;
72085;SDS011;64750;52.134;5.424;2023-04-24T13:54:36;3.08;;;1.25;;
72085;SDS011;64750;52.134;5.424;2023-04-24T13:57:03;5.50;;;1.60;;
72085;SDS011;64750;52.134;5.424;2023-04-24T13:59:29;4.97;;;1.88;;
72085;SDS011;64750;52.134;5.424;2023-04-24T14:01:56;9.85;;;1.42;;
72085;SDS011;64750;52.134;5.424;2023-04-24T14:04:22;4.15;;;1.67;;
72085;SDS011;64750;52.134;5.424;2023-04-24T14:06:49;3.13;;;1.33;;
72085;SDS011;64750;52.134;5.424;2023-04-24T14:09:16;8.50;;;1.97;;
72085;SDS011;64750;52.134;5.424;2023-04-24T14:11:42;10.20;;;1.77;;
72085;SDS011;64750;52.134;5.424;2023-04-24T14:14:09;6.78;;;1.45;;
72085;SDS011;64750;52.134;5.424;2023-04-24T14:16:35;7.80;;;1.85;;
72085;SDS011;64750;52.134;5.424;2023-04-24T14:19:02;10.00;;;2.30;;
72085;SDS011;64750;52.134;5.424;2023-04-24T14:21:28;7.23;;;1.80;;
72085;SDS011;64750;52.134;5.424;2023-04-24T14:23:56;4.85;;;1.48;;
72085;SDS011;64750;52.134;5.424;2023-04-24T14:26:22;5.25;;;1.75;;
72085;SDS011;64750;52.134;5.424;2023-04-24T14:28:50;9.98;;;1.75;;
72085;SDS011;64750;52.134;5.424;2023-04-24T14:31:19;3.65;;;1.20;;
72085;SDS011;64750;52.134;5.424;2023-04-24T14:33:45;5.37;;;1.77;;
72085;SDS011;64750;52.134;5.424;2023-04-24T14:36:12;9.90;;;1.70;;
72085;SDS011;64750;52.134;5.424;2023-04-24T14:38:38;2.88;;;1.30;;
72085;SDS011;64750;52.134;5.424;2023-04-24T14:41:05;8.52;;;1.77;;
72085;SDS011;64750;52.134;5.424;2023-04-24T14:43:36;10.07;;;1.63;;
72085;SDS011;64750;52.134;5.424;2023-04-24T14:46:04;4.07;;;2.50;;
72085;SDS011;64750;52.134;5.424;2023-04-24T14:48:30;5.47;;;1.52;;
72085;SDS011;64750;52.134;5.424;2023-04-24T14:50:57;7.80;;;2.58;;
72085;SDS011;64750;52.134;5.424;2023-04-24T14:53:24;3.30;;;1.65;;
72085;SDS011;64750;52.134;5.424;2023-04-24T14:55:51;9.90;;;1.60;;
72085;SDS011;64750;52.134;5.424;2023-04-24T14:58:17;8.00;;;1.53;;
72085;SDS011;64750;52.134;5.424;2023-04-24T15:00:44;12.18;;;1.88;;
72085;SDS011;64750;52.134;5.424;2023-04-24T15:03:10;15.82;;;2.60;;
72085;SDS011;64750;52.134;5.424;2023-04-24T15:05:37;8.25;;;2.00;;
72085;SDS011;64750;52.134;5.424;2023-04-24T15:08:04;3.83;;;1.70;;